sensor_id;sensor_type;location;lat;lon;timestamp;P1;durP1;ratioP1;P2;durP2;ratioP2
23539;SDS011;11947;50.810;4.394;2022-12-08T00:01:58;87.53;;;36.03;;
23539;SDS011;11947;50.810;4.394;2022-12-08T00:04:24;94.60;;;39.08;;
23539;SDS011;11947;50.810;4.394;2022-12-08T00:06:50;87.65;;;37.05;;
23539;SDS011;11947;50.810;4.394;2022-12-08T00:09:35;90.05;;;35.35;;
23539;SDS011;11947;50.810;4.394;2022-12-08T00:12:04;92.72;;;36.35;;
23539;SDS011;11947;50.810;4.394;2022-12-08T00:14:39;88.65;;;36.90;;
23539;SDS011;11947;50.810;4.394;2022-12-08T00:17:07;96.80;;;37.38;;
23539;SDS011;11947;50.810;4.394;2022-12-08T00:19:37;103.15;;;38.75;;
23539;SDS011;11947;50.810;4.394;2022-12-08T00:22:04;94.97;;;39.10;;
23539;SDS011;11947;50.810;4.394;2022-12-08T00:24:31;84.50;;;36.00;;
23539;SDS011;11947;50.810;4.394;2022-12-08T00:26:59;82.82;;;36.20;;
23539;SDS011;11947;50.810;4.394;2022-12-08T00:29:25;85.85;;;34.35;;
23539;SDS011;11947;50.810;4.394;2022-12-08T00:31:50;86.28;;;37.05;;
23539;SDS011;11947;50.810;4.394;2022-12-08T00:34:16;89.75;;;35.85;;
23539;SDS011;11947;50.810;4.394;2022-12-08T00:36:42;94.65;;;35.40;;
23539;SDS011;11947;50.810;4.394;2022-12-08T00:39:09;92.50;;;37.30;;
23539;SDS011;11947;50.810;4.394;2022-12-08T00:41:36;102.55;;;38.50;;
23539;SDS011;11947;50.810;4.394;2022-12-08T00:44:20;93.22;;;37.38;;
23539;SDS011;11947;50.810;4.394;2022-12-08T00:46:45;92.90;;;36.78;;
23539;SDS011;11947;50.810;4.394;2022-12-08T00:49:11;87.57;;;36.58;;
23539;SDS011;11947;50.810;4.394;2022-12-08T00:51:38;91.65;;;35.95;;
23539;SDS011;11947;50.810;4.394;2022-12-08T00:54:04;95.07;;;39.78;;
23539;SDS011;11947;50.810;4.394;2022-12-08T00:56:30;96.03;;;38.20;;
23539;SDS011;11947;50.810;4.394;2022-12-08T00:58:57;98.72;;;40.53;;
23539;SDS011;11947;50.810;4.394;2022-12-08T01:01:23;89.93;;;36.40;;
23539;SDS011;11947;50.810;4.394;2022-12-08T01:03:48;98.28;;;39.67;;
23539;SDS011;11947;50.810;4.394;2022-12-08T01:06:14;105.97;;;40.10;;
23539;SDS011;11947;50.810;4.394;2022-12-08T01:08:40;95.00;;;38.30;;
23539;SDS011;11947;50.810;4.394;2022-12-08T01:11:07;98.50;;;38.85;;
23539;SDS011;11947;50.810;4.394;2022-12-08T01:13:35;102.25;;;41.15;;
23539;SDS011;11947;50.810;4.394;2022-12-08T01:16:01;98.70;;;38.85;;
23539;SDS011;11947;50.810;4.394;2022-12-08T01:18:27;101.38;;;39.00;;
23539;SDS011;11947;50.810;4.394;2022-12-08T01:20:53;105.97;;;40.38;;
23539;SDS011;11947;50.810;4.394;2022-12-08T01:23:19;111.28;;;40.63;;
23539;SDS011;11947;50.810;4.394;2022-12-08T01:25:45;107.80;;;39.78;;
23539;SDS011;11947;50.810;4.394;2022-12-08T01:28:11;108.70;;;41.75;;
23539;SDS011;11947;50.810;4.394;2022-12-08T01:30:37;115.93;;;41.78;;
23539;SDS011;11947;50.810;4.394;2022-12-08T01:33:03;109.65;;;41.85;;
23539;SDS011;11947;50.810;4.394;2022-12-08T01:35:29;118.75;;;42.35;;
23539;SDS011;11947;50.810;4.394;2022-12-08T01:37:55;108.65;;;41.22;;
23539;SDS011;11947;50.810;4.394;2022-12-08T01:40:21;112.65;;;41.45;;
23539;SDS011;11947;50.810;4.394;2022-12-08T01:42:46;117.32;;;43.42;;
23539;SDS011;11947;50.810;4.394;2022-12-08T01:45:14;128.45;;;41.75;;
23539;SDS011;11947;50.810;4.394;2022-12-08T01:47:52;137.77;;;41.65;;
23539;SDS011;11947;50.810;4.394;2022-12-08T01:50:21;121.72;;;43.63;;
23539;SDS011;11947;50.810;4.394;2022-12-08T01:52:55;127.35;;;42.63;;
23539;SDS011;11947;50.810;4.394;2022-12-08T01:55:38;118.55;;;41.63;;
23539;SDS011;11947;50.810;4.394;2022-12-08T01:58:17;116.63;;;41.88;;
23539;SDS011;11947;50.810;4.394;2022-12-08T02:00:49;131.07;;;44.47;;
23539;SDS011;11947;50.810;4.394;2022-12-08T02:03:17;127.95;;;43.72;;
23539;SDS011;11947;50.810;4.394;2022-12-08T02:05:47;129.63;;;43.63;;
23539;SDS011;11947;50.810;4.394;2022-12-08T02:08:13;118.73;;;43.87;;
23539;SDS011;11947;50.810;4.394;2022-12-08T02:10:40;136.18;;;43.35;;
23539;SDS011;11947;50.810;4.394;2022-12-08T02:13:08;123.10;;;44.42;;
23539;SDS011;11947;50.810;4.394;2022-12-08T02:15:49;119.03;;;43.38;;
23539;SDS011;11947;50.810;4.394;2022-12-08T02:18:55;136.65;;;44.42;;
23539;SDS011;11947;50.810;4.394;2022-12-08T02:22:10;130.73;;;45.15;;
23539;SDS011;11947;50.810;4.394;2022-12-08T02:45:58;116.35;;;40.17;;
23539;SDS011;11947;50.810;4.394;2022-12-08T02:48:27;120.15;;;42.28;;
23539;SDS011;11947;50.810;4.394;2022-12-08T02:50:54;116.72;;;42.90;;
23539;SDS011;11947;50.810;4.394;2022-12-08T02:53:20;125.07;;;42.75;;
23539;SDS011;11947;50.810;4.394;2022-12-08T03:01:05;114.40;;;42.42;;
23539;SDS011;11947;50.810;4.394;2022-12-08T03:03:50;128.23;;;42.53;;
23539;SDS011;11947;50.810;4.394;2022-12-08T03:09:45;118.87;;;42.83;;
23539;SDS011;11947;50.810;4.394;2022-12-08T03:12:08;122.85;;;43.20;;
23539;SDS011;11947;50.810;4.394;2022-12-08T03:14:49;118.15;;;41.85;;
23539;SDS011;11947;50.810;4.394;2022-12-08T03:17:23;117.90;;;41.75;;
23539;SDS011;11947;50.810;4.394;2022-12-08T03:19:52;114.03;;;42.85;;
23539;SDS011;11947;50.810;4.394;2022-12-08T03:22:20;126.25;;;42.20;;
23539;SDS011;11947;50.810;4.394;2022-12-08T03:24:48;122.68;;;42.88;;
23539;SDS011;11947;50.810;4.394;2022-12-08T03:27:16;123.63;;;42.90;;
23539;SDS011;11947;50.810;4.394;2022-12-08T03:29:45;118.72;;;42.72;;
23539;SDS011;11947;50.810;4.394;2022-12-08T03:34:41;112.75;;;42.00;;
23539;SDS011;11947;50.810;4.394;2022-12-08T03:37:09;117.13;;;41.65;;
23539;SDS011;11947;50.810;4.394;2022-12-08T03:39:35;118.85;;;41.67;;
23539;SDS011;11947;50.810;4.394;2022-12-08T03:42:01;126.95;;;41.00;;
23539;SDS011;11947;50.810;4.394;2022-12-08T03:44:27;115.53;;;40.97;;
23539;SDS011;11947;50.810;4.394;2022-12-08T03:46:52;109.80;;;40.17;;
23539;SDS011;11947;50.810;4.394;2022-12-08T03:49:18;121.38;;;41.08;;
23539;SDS011;11947;50.810;4.394;2022-12-08T03:51:44;119.20;;;41.13;;
23539;SDS011;11947;50.810;4.394;2022-12-08T03:54:09;106.55;;;39.53;;
23539;SDS011;11947;50.810;4.394;2022-12-08T03:56:36;111.78;;;40.42;;
23539;SDS011;11947;50.810;4.394;2022-12-08T03:59:03;119.80;;;40.80;;
23539;SDS011;11947;50.810;4.394;2022-12-08T04:01:30;108.13;;;39.83;;
23539;SDS011;11947;50.810;4.394;2022-12-08T04:03:55;108.60;;;39.60;;
23539;SDS011;11947;50.810;4.394;2022-12-08T04:06:21;105.55;;;39.30;;
23539;SDS011;11947;50.810;4.394;2022-12-08T04:08:47;110.65;;;38.60;;
23539;SDS011;11947;50.810;4.394;2022-12-08T04:11:14;112.82;;;39.58;;
23539;SDS011;11947;50.810;4.394;2022-12-08T04:13:40;110.55;;;39.05;;
23539;SDS011;11947;50.810;4.394;2022-12-08T04:16:08;113.35;;;39.08;;
23539;SDS011;11947;50.810;4.394;2022-12-08T04:18:39;111.18;;;40.13;;
23539;SDS011;11947;50.810;4.394;2022-12-08T04:21:05;110.57;;;36.97;;
23539;SDS011;11947;50.810;4.394;2022-12-08T04:23:30;106.38;;;39.30;;
23539;SDS011;11947;50.810;4.394;2022-12-08T04:25:56;102.78;;;38.28;;
23539;SDS011;11947;50.810;4.394;2022-12-08T04:28:22;97.65;;;37.60;;
23539;SDS011;11947;50.810;4.394;2022-12-08T04:30:48;108.55;;;38.88;;
23539;SDS011;11947;50.810;4.394;2022-12-08T04:33:14;99.80;;;36.78;;
23539;SDS011;11947;50.810;4.394;2022-12-08T04:35:40;96.03;;;36.88;;
23539;SDS011;11947;50.810;4.394;2022-12-08T04:38:05;111.40;;;38.13;;
23539;SDS011;11947;50.810;4.394;2022-12-08T04:40:31;112.10;;;38.35;;
23539;SDS011;11947;50.810;4.394;2022-12-08T04:42:57;107.45;;;38.97;;
23539;SDS011;11947;50.810;4.394;2022-12-08T04:45:23;104.68;;;38.42;;
23539;SDS011;11947;50.810;4.394;2022-12-08T04:47:48;108.55;;;40.00;;
23539;SDS011;11947;50.810;4.394;2022-12-08T04:50:14;113.38;;;40.28;;
23539;SDS011;11947;50.810;4.394;2022-12-08T04:52:39;119.03;;;40.20;;
23539;SDS011;11947;50.810;4.394;2022-12-08T04:55:05;114.47;;;40.58;;
23539;SDS011;11947;50.810;4.394;2022-12-08T04:57:31;112.57;;;38.58;;
23539;SDS011;11947;50.810;4.394;2022-12-08T04:59:57;111.25;;;39.35;;
23539;SDS011;11947;50.810;4.394;2022-12-08T05:02:22;111.88;;;38.95;;
23539;SDS011;11947;50.810;4.394;2022-12-08T05:04:48;104.10;;;39.28;;
23539;SDS011;11947;50.810;4.394;2022-12-08T05:07:13;108.72;;;39.03;;
23539;SDS011;11947;50.810;4.394;2022-12-08T05:09:39;107.25;;;39.17;;
23539;SDS011;11947;50.810;4.394;2022-12-08T05:12:05;101.95;;;38.53;;
23539;SDS011;11947;50.810;4.394;2022-12-08T05:14:30;114.05;;;37.50;;
23539;SDS011;11947;50.810;4.394;2022-12-08T05:16:56;86.65;;;36.33;;
23539;SDS011;11947;50.810;4.394;2022-12-08T05:19:22;107.10;;;37.65;;
23539;SDS011;11947;50.810;4.394;2022-12-08T05:21:47;92.65;;;35.42;;
23539;SDS011;11947;50.810;4.394;2022-12-08T05:24:13;110.88;;;36.92;;
23539;SDS011;11947;50.810;4.394;2022-12-08T05:26:39;99.88;;;36.30;;
23539;SDS011;11947;50.810;4.394;2022-12-08T05:29:04;95.53;;;35.92;;
23539;SDS011;11947;50.810;4.394;2022-12-08T05:31:30;92.22;;;35.50;;
23539;SDS011;11947;50.810;4.394;2022-12-08T05:33:55;99.95;;;37.13;;
23539;SDS011;11947;50.810;4.394;2022-12-08T05:36:21;109.07;;;37.78;;
23539;SDS011;11947;50.810;4.394;2022-12-08T05:38:47;101.50;;;35.25;;
23539;SDS011;11947;50.810;4.394;2022-12-08T05:41:14;98.03;;;35.05;;
23539;SDS011;11947;50.810;4.394;2022-12-08T05:43:42;88.25;;;34.78;;
23539;SDS011;11947;50.810;4.394;2022-12-08T05:46:08;95.18;;;35.97;;
23539;SDS011;11947;50.810;4.394;2022-12-08T05:48:34;93.22;;;36.33;;
23539;SDS011;11947;50.810;4.394;2022-12-08T05:51:00;91.97;;;34.70;;
23539;SDS011;11947;50.810;4.394;2022-12-08T05:53:26;90.70;;;33.35;;
23539;SDS011;11947;50.810;4.394;2022-12-08T05:55:52;93.60;;;34.17;;
23539;SDS011;11947;50.810;4.394;2022-12-08T05:58:18;92.90;;;34.47;;
23539;SDS011;11947;50.810;4.394;2022-12-08T06:00:46;92.43;;;33.65;;
23539;SDS011;11947;50.810;4.394;2022-12-08T06:03:12;93.38;;;33.25;;
23539;SDS011;11947;50.810;4.394;2022-12-08T06:05:40;83.90;;;32.80;;
23539;SDS011;11947;50.810;4.394;2022-12-08T06:08:07;88.57;;;33.53;;
23539;SDS011;11947;50.810;4.394;2022-12-08T06:10:33;87.28;;;32.20;;
23539;SDS011;11947;50.810;4.394;2022-12-08T06:12:59;86.47;;;31.33;;
23539;SDS011;11947;50.810;4.394;2022-12-08T06:15:25;87.65;;;31.98;;
23539;SDS011;11947;50.810;4.394;2022-12-08T06:17:50;86.32;;;30.77;;
23539;SDS011;11947;50.810;4.394;2022-12-08T06:20:16;85.10;;;31.67;;
23539;SDS011;11947;50.810;4.394;2022-12-08T06:22:42;82.15;;;32.00;;
23539;SDS011;11947;50.810;4.394;2022-12-08T06:25:08;96.20;;;32.92;;
23539;SDS011;11947;50.810;4.394;2022-12-08T06:27:33;110.13;;;32.67;;
23539;SDS011;11947;50.810;4.394;2022-12-08T06:29:59;85.28;;;30.50;;
23539;SDS011;11947;50.810;4.394;2022-12-08T06:32:25;86.60;;;30.38;;
23539;SDS011;11947;50.810;4.394;2022-12-08T06:34:51;87.55;;;31.27;;
23539;SDS011;11947;50.810;4.394;2022-12-08T06:37:17;79.40;;;30.20;;
23539;SDS011;11947;50.810;4.394;2022-12-08T06:39:43;90.68;;;31.23;;
23539;SDS011;11947;50.810;4.394;2022-12-08T06:42:08;77.55;;;30.15;;
23539;SDS011;11947;50.810;4.394;2022-12-08T06:44:53;84.95;;;30.60;;
23539;SDS011;11947;50.810;4.394;2022-12-08T06:47:21;80.30;;;29.35;;
23539;SDS011;11947;50.810;4.394;2022-12-08T06:49:47;71.57;;;29.08;;
23539;SDS011;11947;50.810;4.394;2022-12-08T06:52:13;79.13;;;30.08;;
23539;SDS011;11947;50.810;4.394;2022-12-08T06:54:39;82.70;;;28.60;;
23539;SDS011;11947;50.810;4.394;2022-12-08T06:57:05;71.95;;;27.40;;
23539;SDS011;11947;50.810;4.394;2022-12-08T06:59:30;81.03;;;28.88;;
23539;SDS011;11947;50.810;4.394;2022-12-08T07:01:56;89.13;;;35.10;;
23539;SDS011;11947;50.810;4.394;2022-12-08T07:04:22;91.85;;;34.90;;
23539;SDS011;11947;50.810;4.394;2022-12-08T07:06:47;74.55;;;29.98;;
23539;SDS011;11947;50.810;4.394;2022-12-08T07:09:13;77.20;;;29.02;;
23539;SDS011;11947;50.810;4.394;2022-12-08T07:11:39;82.60;;;28.10;;
23539;SDS011;11947;50.810;4.394;2022-12-08T07:14:04;71.30;;;27.15;;
23539;SDS011;11947;50.810;4.394;2022-12-08T07:16:30;67.50;;;26.40;;
23539;SDS011;11947;50.810;4.394;2022-12-08T07:18:56;67.38;;;26.25;;
23539;SDS011;11947;50.810;4.394;2022-12-08T07:21:22;71.55;;;27.63;;
23539;SDS011;11947;50.810;4.394;2022-12-08T07:23:48;73.72;;;28.02;;
23539;SDS011;11947;50.810;4.394;2022-12-08T07:26:14;73.70;;;26.33;;
23539;SDS011;11947;50.810;4.394;2022-12-08T07:28:40;75.45;;;27.52;;
23539;SDS011;11947;50.810;4.394;2022-12-08T07:31:07;76.30;;;28.25;;
23539;SDS011;11947;50.810;4.394;2022-12-08T07:33:40;74.95;;;27.45;;
23539;SDS011;11947;50.810;4.394;2022-12-08T07:36:06;79.10;;;27.17;;
23539;SDS011;11947;50.810;4.394;2022-12-08T07:38:31;74.05;;;26.80;;
23539;SDS011;11947;50.810;4.394;2022-12-08T07:40:57;95.65;;;31.30;;
23539;SDS011;11947;50.810;4.394;2022-12-08T07:43:23;96.22;;;35.88;;
23539;SDS011;11947;50.810;4.394;2022-12-08T07:45:49;92.47;;;31.30;;
23539;SDS011;11947;50.810;4.394;2022-12-08T07:48:15;85.82;;;33.28;;
23539;SDS011;11947;50.810;4.394;2022-12-08T07:50:41;80.95;;;30.50;;
23539;SDS011;11947;50.810;4.394;2022-12-08T07:53:07;82.25;;;33.17;;
23539;SDS011;11947;50.810;4.394;2022-12-08T07:55:33;91.20;;;34.45;;
23539;SDS011;11947;50.810;4.394;2022-12-08T07:57:58;100.82;;;37.60;;
23539;SDS011;11947;50.810;4.394;2022-12-08T08:00:24;86.40;;;32.95;;
23539;SDS011;11947;50.810;4.394;2022-12-08T08:02:50;83.03;;;31.63;;
23539;SDS011;11947;50.810;4.394;2022-12-08T08:05:16;87.25;;;34.20;;
23539;SDS011;11947;50.810;4.394;2022-12-08T08:07:41;100.85;;;37.70;;
23539;SDS011;11947;50.810;4.394;2022-12-08T08:10:08;88.60;;;33.63;;
23539;SDS011;11947;50.810;4.394;2022-12-08T08:12:35;82.57;;;31.27;;
23539;SDS011;11947;50.810;4.394;2022-12-08T08:15:02;78.90;;;30.88;;
23539;SDS011;11947;50.810;4.394;2022-12-08T08:17:29;78.68;;;32.63;;
23539;SDS011;11947;50.810;4.394;2022-12-08T08:19:54;79.00;;;28.77;;
23539;SDS011;11947;50.810;4.394;2022-12-08T08:22:20;74.20;;;28.60;;
23539;SDS011;11947;50.810;4.394;2022-12-08T08:24:46;74.65;;;27.35;;
23539;SDS011;11947;50.810;4.394;2022-12-08T08:27:12;91.07;;;32.50;;
23539;SDS011;11947;50.810;4.394;2022-12-08T08:29:38;90.80;;;32.53;;
23539;SDS011;11947;50.810;4.394;2022-12-08T08:32:03;83.35;;;29.63;;
23539;SDS011;11947;50.810;4.394;2022-12-08T08:34:29;73.70;;;28.10;;
23539;SDS011;11947;50.810;4.394;2022-12-08T08:36:55;80.63;;;30.02;;
23539;SDS011;11947;50.810;4.394;2022-12-08T08:39:20;81.40;;;30.48;;
23539;SDS011;11947;50.810;4.394;2022-12-08T08:41:46;75.10;;;29.42;;
23539;SDS011;11947;50.810;4.394;2022-12-08T08:44:12;70.93;;;27.52;;
23539;SDS011;11947;50.810;4.394;2022-12-08T08:46:38;86.38;;;28.38;;
23539;SDS011;11947;50.810;4.394;2022-12-08T08:49:04;79.70;;;29.08;;
23539;SDS011;11947;50.810;4.394;2022-12-08T08:51:30;71.90;;;26.80;;
23539;SDS011;11947;50.810;4.394;2022-12-08T08:53:56;69.18;;;28.90;;
23539;SDS011;11947;50.810;4.394;2022-12-08T08:56:22;74.15;;;29.05;;
23539;SDS011;11947;50.810;4.394;2022-12-08T08:58:48;78.28;;;27.90;;
23539;SDS011;11947;50.810;4.394;2022-12-08T09:01:19;75.35;;;27.52;;
23539;SDS011;11947;50.810;4.394;2022-12-08T09:03:49;74.40;;;27.83;;
23539;SDS011;11947;50.810;4.394;2022-12-08T09:06:15;74.65;;;28.50;;
23539;SDS011;11947;50.810;4.394;2022-12-08T09:08:41;82.25;;;28.90;;
23539;SDS011;11947;50.810;4.394;2022-12-08T09:11:07;72.43;;;27.77;;
23539;SDS011;11947;50.810;4.394;2022-12-08T09:13:33;79.43;;;28.90;;
23539;SDS011;11947;50.810;4.394;2022-12-08T09:16:03;65.88;;;26.20;;
23539;SDS011;11947;50.810;4.394;2022-12-08T09:18:30;77.25;;;27.90;;
23539;SDS011;11947;50.810;4.394;2022-12-08T09:20:55;71.53;;;28.40;;
23539;SDS011;11947;50.810;4.394;2022-12-08T09:23:27;63.47;;;25.88;;
23539;SDS011;11947;50.810;4.394;2022-12-08T09:25:52;63.60;;;26.00;;
23539;SDS011;11947;50.810;4.394;2022-12-08T09:28:18;67.15;;;25.83;;
23539;SDS011;11947;50.810;4.394;2022-12-08T09:30:44;62.60;;;25.05;;
23539;SDS011;11947;50.810;4.394;2022-12-08T09:33:09;67.32;;;24.50;;
23539;SDS011;11947;50.810;4.394;2022-12-08T09:35:35;63.83;;;25.88;;
23539;SDS011;11947;50.810;4.394;2022-12-08T09:38:01;70.22;;;25.40;;
23539;SDS011;11947;50.810;4.394;2022-12-08T09:40:26;61.00;;;23.52;;
23539;SDS011;11947;50.810;4.394;2022-12-08T09:45:42;66.72;;;23.77;;
23539;SDS011;11947;50.810;4.394;2022-12-08T09:48:15;76.85;;;25.30;;
23539;SDS011;11947;50.810;4.394;2022-12-08T09:50:53;62.65;;;21.73;;
23539;SDS011;11947;50.810;4.394;2022-12-08T09:53:25;56.88;;;23.13;;
23539;SDS011;11947;50.810;4.394;2022-12-08T09:58:38;61.40;;;22.45;;
23539;SDS011;11947;50.810;4.394;2022-12-08T10:01:11;56.88;;;21.42;;
23539;SDS011;11947;50.810;4.394;2022-12-08T10:03:38;53.10;;;21.58;;
23539;SDS011;11947;50.810;4.394;2022-12-08T10:08:40;54.60;;;21.58;;
23539;SDS011;11947;50.810;4.394;2022-12-08T10:11:18;49.70;;;20.88;;
23539;SDS011;11947;50.810;4.394;2022-12-08T10:16:47;47.22;;;19.90;;
23539;SDS011;11947;50.810;4.394;2022-12-08T10:19:21;50.47;;;19.08;;
23539;SDS011;11947;50.810;4.394;2022-12-08T10:21:49;52.20;;;19.17;;
23539;SDS011;11947;50.810;4.394;2022-12-08T10:24:32;48.65;;;18.20;;
23539;SDS011;11947;50.810;4.394;2022-12-08T10:27:03;52.10;;;19.45;;
23539;SDS011;11947;50.810;4.394;2022-12-08T10:29:33;46.70;;;18.83;;
23539;SDS011;11947;50.810;4.394;2022-12-08T10:31:59;54.28;;;20.10;;
23539;SDS011;11947;50.810;4.394;2022-12-08T10:34:33;51.92;;;19.45;;
23539;SDS011;11947;50.810;4.394;2022-12-08T10:36:59;48.00;;;19.45;;
23539;SDS011;11947;50.810;4.394;2022-12-08T10:42:17;48.75;;;18.88;;
23539;SDS011;11947;50.810;4.394;2022-12-08T10:44:59;49.60;;;18.58;;
23539;SDS011;11947;50.810;4.394;2022-12-08T10:47:40;42.03;;;16.45;;
23539;SDS011;11947;50.810;4.394;2022-12-08T10:52:55;46.78;;;19.73;;
23539;SDS011;11947;50.810;4.394;2022-12-08T10:57:49;47.75;;;21.42;;
23539;SDS011;11947;50.810;4.394;2022-12-08T11:00:19;56.75;;;22.05;;
23539;SDS011;11947;50.810;4.394;2022-12-08T11:02:55;55.60;;;19.88;;
23539;SDS011;11947;50.810;4.394;2022-12-08T11:05:22;65.80;;;25.33;;
23539;SDS011;11947;50.810;4.394;2022-12-08T11:07:52;53.97;;;20.98;;
23539;SDS011;11947;50.810;4.394;2022-12-08T11:10:20;45.80;;;19.67;;
23539;SDS011;11947;50.810;4.394;2022-12-08T11:12:52;49.30;;;18.55;;
23539;SDS011;11947;50.810;4.394;2022-12-08T11:15:19;45.22;;;19.35;;
23539;SDS011;11947;50.810;4.394;2022-12-08T11:17:45;48.05;;;18.83;;
23539;SDS011;11947;50.810;4.394;2022-12-08T11:20:24;42.17;;;18.77;;
23539;SDS011;11947;50.810;4.394;2022-12-08T11:22:54;44.10;;;18.52;;
23539;SDS011;11947;50.810;4.394;2022-12-08T11:25:24;48.85;;;18.35;;
23539;SDS011;11947;50.810;4.394;2022-12-08T11:28:00;44.88;;;18.52;;
23539;SDS011;11947;50.810;4.394;2022-12-08T11:30:41;50.65;;;19.77;;
23539;SDS011;11947;50.810;4.394;2022-12-08T11:33:21;39.47;;;18.13;;
23539;SDS011;11947;50.810;4.394;2022-12-08T11:38:22;43.07;;;17.90;;
23539;SDS011;11947;50.810;4.394;2022-12-08T11:40:54;43.80;;;17.45;;
23539;SDS011;11947;50.810;4.394;2022-12-08T11:46:14;44.97;;;15.23;;
23539;SDS011;11947;50.810;4.394;2022-12-08T11:51:33;44.13;;;15.80;;
23539;SDS011;11947;50.810;4.394;2022-12-08T11:54:04;40.50;;;15.70;;
23539;SDS011;11947;50.810;4.394;2022-12-08T11:56:35;36.55;;;16.33;;
23539;SDS011;11947;50.810;4.394;2022-12-08T11:59:09;37.63;;;16.30;;
23539;SDS011;11947;50.810;4.394;2022-12-08T12:01:37;42.97;;;16.02;;
23539;SDS011;11947;50.810;4.394;2022-12-08T12:12:16;52.75;;;17.50;;
23539;SDS011;11947;50.810;4.394;2022-12-08T12:17:41;39.00;;;15.15;;
23539;SDS011;11947;50.810;4.394;2022-12-08T12:23:33;38.67;;;15.25;;
23539;SDS011;11947;50.810;4.394;2022-12-08T12:26:06;37.33;;;16.45;;
23539;SDS011;11947;50.810;4.394;2022-12-08T12:29:15;37.85;;;17.30;;
23539;SDS011;11947;50.810;4.394;2022-12-08T12:31:40;43.10;;;17.08;;
23539;SDS011;11947;50.810;4.394;2022-12-08T12:34:19;37.00;;;15.25;;
23539;SDS011;11947;50.810;4.394;2022-12-08T12:36:52;38.85;;;15.30;;
23539;SDS011;11947;50.810;4.394;2022-12-08T12:39:21;39.65;;;15.18;;
23539;SDS011;11947;50.810;4.394;2022-12-08T12:42:00;43.85;;;18.50;;
23539;SDS011;11947;50.810;4.394;2022-12-08T12:47:00;38.30;;;15.13;;
23539;SDS011;11947;50.810;4.394;2022-12-08T13:02:39;36.53;;;14.15;;
23539;SDS011;11947;50.810;4.394;2022-12-08T13:11:01;26.08;;;11.80;;
23539;SDS011;11947;50.810;4.394;2022-12-08T13:13:29;24.00;;;11.50;;
23539;SDS011;11947;50.810;4.394;2022-12-08T13:16:17;32.03;;;13.88;;
23539;SDS011;11947;50.810;4.394;2022-12-08T13:18:46;35.08;;;13.70;;
23539;SDS011;11947;50.810;4.394;2022-12-08T13:21:15;43.38;;;17.42;;
23539;SDS011;11947;50.810;4.394;2022-12-08T13:23:50;34.40;;;14.48;;
23539;SDS011;11947;50.810;4.394;2022-12-08T13:26:48;37.33;;;17.00;;
23539;SDS011;11947;50.810;4.394;2022-12-08T13:29:35;31.33;;;13.65;;
23539;SDS011;11947;50.810;4.394;2022-12-08T13:32:02;26.52;;;12.50;;
23539;SDS011;11947;50.810;4.394;2022-12-08T13:34:38;27.42;;;12.38;;
23539;SDS011;11947;50.810;4.394;2022-12-08T13:42:23;33.47;;;14.10;;
23539;SDS011;11947;50.810;4.394;2022-12-08T13:45:20;34.00;;;13.93;;
23539;SDS011;11947;50.810;4.394;2022-12-08T13:47:53;33.83;;;15.20;;
23539;SDS011;11947;50.810;4.394;2022-12-08T13:51:15;30.67;;;13.18;;
23539;SDS011;11947;50.810;4.394;2022-12-08T13:53:57;26.23;;;13.02;;
23539;SDS011;11947;50.810;4.394;2022-12-08T13:56:41;30.95;;;12.15;;
23539;SDS011;11947;50.810;4.394;2022-12-08T14:01:43;33.75;;;14.00;;
23539;SDS011;11947;50.810;4.394;2022-12-08T14:04:13;32.40;;;12.98;;
23539;SDS011;11947;50.810;4.394;2022-12-08T14:06:49;33.97;;;13.55;;
23539;SDS011;11947;50.810;4.394;2022-12-08T14:09:18;30.17;;;12.40;;
23539;SDS011;11947;50.810;4.394;2022-12-08T14:11:50;28.02;;;12.13;;
23539;SDS011;11947;50.810;4.394;2022-12-08T14:14:29;28.70;;;11.80;;
23539;SDS011;11947;50.810;4.394;2022-12-08T14:17:02;24.95;;;10.77;;
23539;SDS011;11947;50.810;4.394;2022-12-08T14:19:31;23.85;;;11.65;;
23539;SDS011;11947;50.810;4.394;2022-12-08T14:22:00;25.13;;;11.43;;
23539;SDS011;11947;50.810;4.394;2022-12-08T14:24:30;24.60;;;11.38;;
23539;SDS011;11947;50.810;4.394;2022-12-08T14:26:57;29.98;;;11.77;;
23539;SDS011;11947;50.810;4.394;2022-12-08T14:32:17;24.95;;;11.25;;
23539;SDS011;11947;50.810;4.394;2022-12-08T14:34:50;26.27;;;10.98;;
23539;SDS011;11947;50.810;4.394;2022-12-08T14:37:17;25.25;;;11.30;;
23539;SDS011;11947;50.810;4.394;2022-12-08T14:39:44;29.15;;;13.32;;
23539;SDS011;11947;50.810;4.394;2022-12-08T14:42:20;23.45;;;11.52;;
23539;SDS011;11947;50.810;4.394;2022-12-08T14:44:47;23.13;;;11.45;;
23539;SDS011;11947;50.810;4.394;2022-12-08T14:47:27;23.15;;;12.02;;
23539;SDS011;11947;50.810;4.394;2022-12-08T14:49:54;26.80;;;12.30;;
23539;SDS011;11947;50.810;4.394;2022-12-08T14:52:19;28.85;;;12.48;;
23539;SDS011;11947;50.810;4.394;2022-12-08T14:54:47;28.50;;;12.93;;
23539;SDS011;11947;50.810;4.394;2022-12-08T14:57:15;30.02;;;13.93;;
23539;SDS011;11947;50.810;4.394;2022-12-08T14:59:41;29.73;;;14.02;;
23539;SDS011;11947;50.810;4.394;2022-12-08T15:04:43;32.58;;;14.55;;
23539;SDS011;11947;50.810;4.394;2022-12-08T15:07:18;29.15;;;13.85;;
23539;SDS011;11947;50.810;4.394;2022-12-08T15:09:48;29.05;;;13.52;;
23539;SDS011;11947;50.810;4.394;2022-12-08T15:12:33;29.00;;;12.95;;
23539;SDS011;11947;50.810;4.394;2022-12-08T15:17:34;35.97;;;14.48;;
23539;SDS011;11947;50.810;4.394;2022-12-08T15:23:19;30.80;;;14.82;;
23539;SDS011;11947;50.810;4.394;2022-12-08T15:26:03;31.23;;;13.60;;
23539;SDS011;11947;50.810;4.394;2022-12-08T15:28:29;30.85;;;13.95;;
23539;SDS011;11947;50.810;4.394;2022-12-08T15:30:55;35.90;;;14.80;;
23539;SDS011;11947;50.810;4.394;2022-12-08T15:33:21;30.38;;;14.07;;
23539;SDS011;11947;50.810;4.394;2022-12-08T15:35:47;27.58;;;13.60;;
23539;SDS011;11947;50.810;4.394;2022-12-08T15:40:50;29.33;;;14.43;;
23539;SDS011;11947;50.810;4.394;2022-12-08T15:43:16;34.13;;;14.05;;
23539;SDS011;11947;50.810;4.394;2022-12-08T15:45:43;33.55;;;14.25;;
23539;SDS011;11947;50.810;4.394;2022-12-08T15:48:14;31.08;;;14.45;;
23539;SDS011;11947;50.810;4.394;2022-12-08T15:50:42;30.65;;;14.80;;
23539;SDS011;11947;50.810;4.394;2022-12-08T15:53:10;31.90;;;14.35;;
23539;SDS011;11947;50.810;4.394;2022-12-08T15:55:36;30.73;;;14.68;;
23539;SDS011;11947;50.810;4.394;2022-12-08T15:58:02;32.83;;;15.35;;
23539;SDS011;11947;50.810;4.394;2022-12-08T16:00:29;32.63;;;15.00;;
23539;SDS011;11947;50.810;4.394;2022-12-08T16:02:57;35.00;;;16.85;;
23539;SDS011;11947;50.810;4.394;2022-12-08T16:05:25;32.97;;;17.50;;
23539;SDS011;11947;50.810;4.394;2022-12-08T16:07:52;32.45;;;17.13;;
23539;SDS011;11947;50.810;4.394;2022-12-08T16:10:19;35.05;;;17.73;;
23539;SDS011;11947;50.810;4.394;2022-12-08T16:12:50;36.78;;;18.15;;
23539;SDS011;11947;50.810;4.394;2022-12-08T16:15:36;38.47;;;17.88;;
23539;SDS011;11947;50.810;4.394;2022-12-08T16:18:04;34.83;;;17.58;;
23539;SDS011;11947;50.810;4.394;2022-12-08T16:20:30;40.10;;;19.05;;
23539;SDS011;11947;50.810;4.394;2022-12-08T16:22:56;38.35;;;18.58;;
23539;SDS011;11947;50.810;4.394;2022-12-08T16:25:22;43.60;;;22.15;;
23539;SDS011;11947;50.810;4.394;2022-12-08T16:27:49;40.03;;;20.98;;